Latest Weather Observations for Cooma Airport

IDN60901

Issued at 10:05 am EST Monday 22 September 2014 (issued every 10 minutes, with the page automatically refreshed every 10 minutes)

About weather observations | Map of Canberra area stations | Latest observations for Canberra area | Other Formats
Station Details ID: 070217 Name: COOMA AIRPORT AWS Lat: -36.29 Lon: 148.97 Height: 930.0 m
Data from the previous 72 hours. | See also: Recent months for locations in Aust Capital Territory
Date/Time
EST
Tmp

°C
App
Tmp
°C
Dew
Point
°C
Rel
Hum
%
Delta-T

°C
Wind Press
QNH
hPa
Press
MSL
hPa
Rain
since
9 am
mm
Dir
 
Spd
km/h
Gust
km/h
Spd
kts
Gust
kts
22/10:00am 9.1 5.1 4.9 75 2.0 NE 15 20 8 11 1031.0 1031.2 0.0
22/09:30am 8.2 4.5 6.3 88 0.9 NE 15 19 8 10 1031.2 1031.5 0.0
22/09:00am 6.5 2.2 5.1 91 0.6 NE 17 22 9 12 1031.5 1031.8 0.0
22/08:30am 5.0 1.2 4.1 94 0.4 NE 13 17 7 9 1031.4 1031.7 0.0
22/08:00am 3.3 -1.0 3.2 99 0.0 NE 15 17 8 9 1031.5 1031.8 0.0
22/07:56am 3.3 -1.0 3.2 99 0.0 NE 15 17 8 9 1031.5 1031.8 0.0
22/07:30am 1.6 -2.6 1.5 99 0.0 NNE 13 15 7 8 1031.4 1031.7 0.0
22/07:00am -0.2 -4.7 -0.3 99 0.0 NNE 13 15 7 8 1031.1 1031.4 0.0
22/06:30am -0.3 -3.7 -0.4 99 0.0 N 7 11 4 6 1030.8 1031.0 0.0
22/06:00am -0.2 -4.7 -0.3 99 0.0 N 13 15 7 8 1030.6 1030.8 0.0
22/05:30am -0.8 -5.4 -0.9 99 0.0 N 13 15 7 8 1030.3 1030.6 0.0
22/05:00am -0.5 -5.8 -0.6 99 0.0 NE 17 19 9 10 1030.0 1030.2 0.0
22/04:54am -1.5 -6.6 -1.6 99 0.0 NNE 15 17 8 9 1029.9 1030.1 0.0
22/04:52am -1.5 -6.6 -1.6 99 0.0 NNE 15 17 8 9 1029.9 1030.1 0.0
22/04:30am -3.0 -7.2 -4.0 93 0.2 NNE 9 11 5 6 1029.7 1029.9 0.0
22/04:00am -0.6 -4.8 -0.7 99 0.0 N 11 13 6 7 1029.5 1029.7 0.0
22/03:51am -0.3 -4.4 -0.4 99 0.0 N 11 13 6 7 1029.5 1029.7 0.0
22/03:44am -0.2 -4.7 -0.3 99 0.0 N 13 15 7 8 1029.5 1029.7 0.0
22/03:30am -1.4 -5.3 -1.5 99 0.0 N 9 15 5 8 1029.5 1029.7 0.0
22/03:00am -0.9 -4.2 -1.0 99 0.0 NE 6 7 3 4 1029.6 1029.8 0.0
22/02:30am -1.0 -4.3 -1.1 99 0.0 N 6 7 3 4 1029.7 1029.9 0.0
22/02:25am -2.0 -5.6 -2.1 99 -0.1 N 7 9 4 5 1029.8 1030.0 0.0
22/02:21am -2.3 -6.0 -2.8 96 0.1 N 7 9 4 5 1029.9 1030.1 0.0
22/02:00am -2.4 -4.9 -3.7 91 0.3 CALM 0 0 0 0 1030.0 1030.2 0.0
22/01:30am -1.6 -3.9 -2.7 92 0.3 CALM 0 0 0 0 1030.1 1030.4 0.0
22/01:00am -0.5 -2.6 -0.6 99 0.0 CALM 0 0 0 0 1030.3 1030.6 0.0
22/12:30am -1.1 -3.4 -2.1 93 0.3 CALM 0 0 0 0 1030.4 1030.7 0.0
22/12:00am -0.8 -3.0 -1.2 97 0.1 ENE 0 0 0 0 1030.6 1030.8 0.0
 
Date/Time
EST
Tmp

°C
App
Tmp
°C
Dew
Point
°C
Rel
Hum
%
Delta-T

°C
Wind Press
QNH
hPa
Press
MSL
hPa
Rain
since
9 am
mm
Dir
 
Spd
km/h
Gust
km/h
Spd
kts
Gust
kts
21/11:30pm -0.6 -2.8 -1.4 94 0.3 CALM 0 0 0 0 1030.6 1030.8 0.0
21/11:00pm 0.2 -1.9 -0.6 94 0.3 CALM 0 0 0 0 1030.4 1030.7 0.0
21/10:30pm 0.1 -2.1 -1.8 87 0.7 CALM 0 0 0 0 1030.3 1030.6 0.0
21/10:00pm 0.7 -1.4 -1.1 88 0.7 CALM 0 0 0 0 1030.3 1030.6 0.0
21/09:30pm 1.7 -0.4 -0.7 84 0.9 CALM 0 0 0 0 1030.2 1030.5 0.0
21/09:00pm 1.8 -1.6 -0.9 82 1.0 SSW 7 11 4 6 1030.0 1030.2 0.0
21/08:30pm 3.6 1.4 -1.5 69 2.0 CALM 0 6 0 3 1029.7 1029.9 0.0
21/08:00pm 5.2 1.5 -0.2 68 2.2 NNE 9 11 5 6 1029.5 1029.7 0.0
21/07:30pm 6.1 2.8 0.0 65 2.5 S 7 9 4 5 1029.4 1029.6 0.0
21/07:00pm 7.1 4.4 0.3 62 2.8 SW 4 7 2 4 1029.1 1029.3 0.0
21/06:30pm 7.9 6.1 0.9 61 3.0 CALM 0 0 0 0 1028.8 1029.0 0.0
21/06:00pm 8.6 5.5 1.3 60 3.1 SE 7 9 4 5 1028.4 1028.6 0.0
21/05:30pm 11.1 6.6 2.2 54 4.0 S 15 19 8 10 1028.0 1028.2 0.0
21/05:00pm 12.9 8.1 0.3 42 5.5 S 15 19 8 10 1027.9 1028.1 0.0
21/04:30pm 13.3 8.2 1.0 43 5.5 S 17 20 9 11 1027.8 1028.0 0.0
21/04:00pm 13.6 8.3 -0.4 38 6.1 S 17 22 9 12 1027.7 1027.9 0.0
21/03:30pm 14.1 8.9 0.0 38 6.2 S 17 22 9 12 1027.5 1027.7 0.0
21/03:00pm 14.0 9.5 -0.4 37 6.3 S 13 20 7 11 1027.4 1027.6 0.0
21/02:30pm 13.9 9.7 1.5 43 5.7 S 13 24 7 13 1027.6 1027.8 0.0
21/02:00pm 13.2 8.4 0.3 41 5.7 S 15 20 8 11 1027.8 1028.0 0.0
21/01:30pm 12.9 8.6 1.3 45 5.2 S 13 17 7 9 1027.9 1028.1 0.0
21/01:00pm 12.3 8.6 2.2 50 4.6 SSE 11 17 6 9 1028.4 1028.6 0.0
21/12:30pm 11.8 7.7 2.0 51 4.4 SSW 13 22 7 12 1028.6 1028.8 0.0
21/12:00pm 11.0 7.5 1.5 52 4.2 S 9 15 5 8 1029.0 1029.2 0.0
21/11:30am 10.8 8.0 2.1 55 3.9 SSW 6 13 3 7 1029.5 1029.7 0.0
21/11:00am 10.0 7.9 1.6 56 3.7 ESE 2 9 1 5 1029.7 1029.9 0.0
21/10:30am 9.8 7.0 1.9 58 3.5 NE 6 9 3 5 1029.9 1030.1 0.0
21/10:00am 8.8 6.0 3.2 68 2.5 WSW 7 13 4 7 1030.1 1030.4 0.0
21/09:30am 7.5 4.1 2.0 68 2.4 WSW 9 13 5 7 1030.2 1030.5 0.0
21/09:00am 6.8 3.9 2.7 75 1.8 W 7 13 4 7 1030.2 1030.5 0.0
21/08:30am 5.5 2.0 3.5 87 0.9 SW 11 15 6 8 1030.4 1030.7 0.0
21/08:00am 4.0 1.0 3.9 99 0.0 W 9 11 5 6 1030.7 1030.9 0.0
21/07:30am 2.8 -0.1 2.7 99 0.0 WSW 7 11 4 6 1030.6 1030.8 0.0
21/07:10am 1.8 -1.1 1.7 99 0.0 WSW 6 7 3 4 1030.4 1030.7 0.0
21/07:00am 1.5 -1.6 1.4 99 0.0 SW 7 11 4 6 1030.2 1030.5 0.0
21/06:56am 1.3 -1.8 1.2 99 0.0 SW 7 11 4 6 1030.2 1030.5 0.0
21/06:30am 0.1 -4.4 0.0 99 0.0 S 13 15 7 8 1029.6 1029.8 0.0
21/06:28am 0.0 -4.5 -0.1 99 0.0 S 13 15 7 8 1029.5 1029.7 0.0
21/06:00am -2.8 -6.5 -2.9 99 -0.1 SW 7 7 4 4 1028.7 1028.9 0.0
21/05:54am -3.6 -7.4 -3.7 99 -0.1 SW 7 7 4 4 1028.7 1028.9 0.0
21/05:30am -3.3 -5.8 -3.6 98 0.0 CALM 0 0 0 0 1028.1 1028.3 0.0
21/05:00am -3.4 -6.3 -3.9 96 0.0 WSW 2 7 1 4 1027.6 1027.8 0.0
21/04:30am -2.8 -6.0 -3.6 94 0.1 WNW 4 7 2 4 1027.3 1027.4 0.0
21/04:00am -2.5 -4.9 -2.9 97 0.0 CALM 0 6 0 3 1027.1 1027.2 0.0
21/03:31am -2.6 -5.0 -3.0 97 0.0 CALM 0 0 0 0 1026.8 1027.0 0.0
21/03:30am -2.7 -5.1 -3.1 97 0.0 CALM 0 0 0 0 1026.8 1027.0 0.0
21/03:13am -2.3 -4.6 -2.4 99 -0.1 CALM 0 0 0 0 1026.6 1026.8 0.0
21/03:00am -1.2 -3.4 -1.3 99 0.0 CALM 0 0 0 0 1026.8 1027.0 0.0
21/02:30am -2.3 -4.7 -3.3 93 0.2 CALM 0 0 0 0 1027.2 1027.3 0.0
21/02:00am -1.1 -3.3 -1.2 99 0.0 CALM 0 0 0 0 1027.5 1027.7 0.0
21/01:30am -1.7 -4.1 -2.8 92 0.3 CALM 0 6 0 3 1027.9 1028.1 0.0
21/01:00am -1.2 -3.5 -2.5 91 0.4 CALM 0 0 0 0 1028.4 1028.6 0.0
21/12:30am -0.3 -2.5 -1.3 93 0.4 CALM 0 0 0 0 1028.4 1028.6 0.0
21/12:00am 1.5 -0.5 -0.1 89 0.6 CALM 0 0 0 0 1028.5 1028.7 0.0
 
Date/Time
EST
Tmp

°C
App
Tmp
°C
Dew
Point
°C
Rel
Hum
%
Delta-T

°C
Wind Press
QNH
hPa
Press
MSL
hPa
Rain
since
9 am
mm
Dir
 
Spd
km/h
Gust
km/h
Spd
kts
Gust
kts
20/11:30pm 2.4 0.5 0.3 86 0.8 CALM 0 0 0 0 1028.6 1028.8 0.0
20/11:00pm 3.7 2.0 1.9 88 0.7 CALM 0 0 0 0 1028.7 1028.9 0.0
20/10:30pm 3.2 1.5 2.0 92 0.5 CALM 0 0 0 0 1028.7 1028.9 0.0
20/10:00pm 2.8 1.0 1.3 90 0.6 CALM 0 0 0 0 1028.6 1028.8 0.0
20/09:30pm 1.6 -0.5 -0.8 84 0.9 CALM 0 0 0 0 1028.5 1028.7 0.0
20/09:00pm 3.7 0.6 1.1 83 1.1 W 7 9 4 5 1028.0 1028.2 0.0
20/08:30pm 4.7 2.9 1.2 78 1.5 CALM 0 7 0 4 1027.8 1028.0 0.0
20/08:00pm 5.3 3.2 1.6 77 1.6 SSE 2 7 1 4 1027.6 1027.8 0.0
20/07:30pm 6.0 3.5 1.5 73 1.9 NW 4 9 2 5 1027.4 1027.6 0.0
20/07:00pm 6.6 2.1 2.1 73 1.9 SE 15 19 8 10 1026.9 1027.1 0.0
20/06:30pm 7.1 2.3 2.4 72 2.1 SE 17 20 9 11 1026.3 1026.4 0.0
20/06:00pm 7.3 3.5 1.8 68 2.4 SE 11 15 6 8 1025.7 1025.9 0.0
20/05:30pm 9.0 4.5 2.1 62 3.1 S 15 19 8 10 1025.2 1025.3 0.0
20/05:00pm 10.5 5.1 1.3 53 4.0 S 19 26 10 14 1024.9 1025.0 0.0
20/04:30pm 11.1 6.1 1.4 51 4.3 S 17 28 9 15 1024.3 1024.4 0.0
20/04:00pm 11.5 6.2 2.0 52 4.3 S 19 24 10 13 1024.1 1024.2 0.0
20/03:30pm 11.1 5.3 0.2 47 4.7 S 20 26 11 14 1024.0 1024.1 0.0
20/03:00pm 11.3 5.9 2.3 54 4.1 S 20 30 11 16 1024.0 1024.1 0.0
20/02:30pm 11.1 5.5 1.4 51 4.3 SSE 20 28 11 15 1023.9 1024.0 0.0
20/02:00pm 11.0 5.6 2.3 55 3.9 S 20 32 11 17 1024.1 1024.2 0.0
20/01:30pm 10.8 5.2 1.1 51 4.3 SSW 20 26 11 14 1024.2 1024.3 0.0
20/01:00pm 10.8 5.6 2.6 57 3.7 SSW 19 26 10 14 1024.1 1024.2 0.0
20/12:30pm 10.2 5.0 2.6 59 3.4 S 19 28 10 15 1024.4 1024.5 0.0
20/12:00pm 9.4 4.0 2.3 61 3.2 S 20 28 11 15 1024.6 1024.8 0.0
20/11:30am 8.9 2.2 1.3 59 3.3 S 26 35 14 19 1024.8 1024.9 0.0
20/11:00am 8.4 0.9 1.1 60 3.1 SSW 30 39 16 21 1024.5 1024.7 0.0
20/10:30am 8.1 2.2 1.5 63 2.9 SSW 22 32 12 17 1025.0 1025.1 0.0
20/10:00am 7.1 -0.1 0.5 63 2.8 SW 28 37 15 20 1025.1 1025.2 0.0
20/09:30am 7.2 -0.5 2.3 71 2.1 SSW 32 43 17 23 1025.1 1025.2 0.0
20/09:00am 6.0 -1.2 0.6 68 2.2 SW 28 35 15 19 1025.2 1025.3 0.2
20/08:30am 4.8 -2.9 0.2 72 1.9 SW 30 37 16 20 1024.9 1025.0 0.2
20/08:00am 4.0 -4.0 0.2 76 1.5 SSW 32 39 17 21 1024.8 1024.9 0.2
20/07:30am 4.0 -2.3 1.4 83 1.1 SW 24 28 13 15 1024.5 1024.7 0.2
20/07:00am 3.0 -2.9 1.4 89 0.7 SW 22 32 12 17 1024.2 1024.3 0.0
20/06:30am 2.2 -3.4 1.5 95 0.3 SW 20 24 11 13 1023.8 1023.9 0.0
20/06:00am 2.1 -3.8 1.5 96 0.2 SW 22 28 12 15 1023.3 1023.4 0.0
20/05:30am 1.6 -3.4 1.5 99 0.0 SW 17 22 9 12 1022.9 1023.0 0.0
20/05:00am 1.4 -2.9 1.3 99 0.0 SW 13 17 7 9 1022.8 1022.9 0.0
20/04:30am -0.5 -3.7 -0.6 99 0.0 WSW 6 13 3 7 1022.3 1022.4 0.0
20/04:00am -0.5 -4.3 -0.6 99 0.0 S 9 9 5 5 1022.2 1022.3 0.0
20/03:30am -1.1 -3.3 -1.2 99 0.0 CALM 0 0 0 0 1022.1 1022.2 0.0
20/03:00am -0.8 -3.7 -0.9 99 0.0 S 4 7 2 4 1021.8 1021.9 0.0
20/02:30am -1.2 -3.4 -1.5 98 0.1 CALM 0 0 0 0 1021.8 1021.9 0.0
20/02:00am -0.9 -3.4 -1.2 98 0.1 NW 2 6 1 3 1022.0 1022.1 0.0
20/01:30am -1.4 -5.7 -1.8 97 0.1 WSW 11 13 6 7 1022.2 1022.3 0.0
20/01:00am -1.4 -5.4 -2.1 95 0.2 WSW 9 13 5 7 1022.2 1022.3 0.0
20/12:30am -0.8 -3.0 -1.5 95 0.2 CALM 0 0 0 0 1022.2 1022.3 0.0
20/12:00am -0.9 -3.1 -1.6 95 0.2 CALM 0 0 0 0 1022.1 1022.2 0.0
 
Date/Time
EST
Tmp

°C
App
Tmp
°C
Dew
Point
°C
Rel
Hum
%
Delta-T

°C
Wind Press
QNH
hPa
Press
MSL
hPa
Rain
since
9 am
mm
Dir
 
Spd
km/h
Gust
km/h
Spd
kts
Gust
kts
19/11:30pm -1.8 -4.2 -3.4 89 0.5 CALM 0 0 0 0 1022.1 1022.2 0.0
19/11:00pm -0.7 -2.9 -1.8 92 0.4 CALM 0 0 0 0 1022.3 1022.4 0.0
19/10:30pm 0.2 -1.9 -0.9 92 0.4 CALM 0 0 0 0 1022.3 1022.4 0.0
19/10:00pm -0.4 -4.0 -1.8 90 0.5 ENE 7 9 4 5 1022.5 1022.5 0.0
19/09:30pm 0.7 -1.8 -1.1 88 0.7 SW 2 7 1 4 1022.3 1022.4 0.0
19/09:00pm 0.7 -1.5 -1.4 86 0.8 CALM 0 0 0 0 1022.2 1022.3 0.0
19/08:30pm 1.5 -0.7 -1.4 81 1.1 CALM 0 0 0 0 1022.1 1022.2 0.0
19/08:00pm 3.1 -0.2 0.0 80 1.2 W 7 9 4 5 1021.9 1022.0 0.0
19/07:30pm 3.9 0.3 0.4 78 1.4 WSW 9 11 5 6 1021.6 1021.6 0.0
19/07:01pm 4.2 -0.5 0.7 78 1.4 SW 15 17 8 9 1021.3 1021.3 0.0
19/07:00pm 4.2 -0.5 0.7 78 1.4 SW 15 17 8 9 1021.3 1021.3 0.0
19/06:42pm 4.6 0.3 0.9 77 1.5 SSW 13 17 7 9 1021.1 1021.2 0.0
19/06:30pm 4.9 0.2 0.9 75 1.7 SSW 15 17 8 9 1021.0 1021.1 0.0
19/06:00pm 7.1 1.5 1.0 65 2.6 S 20 28 11 15 1020.4 1020.4 0.0
19/05:30pm 8.9 3.3 0.9 57 3.4 S 20 26 11 14 1020.0 1020.1 0.0
19/05:00pm 9.9 3.9 1.3 55 3.8 S 22 28 12 15 1019.7 1019.7 0.0
19/04:30pm 10.3 3.8 0.6 51 4.2 S 24 32 13 17 1019.4 1019.4 0.0
19/04:00pm 10.9 2.8 -0.2 46 4.7 S 32 39 17 21 1019.1 1019.1 0.0
19/03:30pm 11.1 3.8 -0.1 46 4.8 S 28 39 15 21 1019.0 1019.0 0.0
19/03:00pm 11.1 3.7 -1.0 43 5.1 S 28 39 15 21 1019.2 1019.2 0.0
19/02:30pm 11.2 4.5 1.2 50 4.4 SSW 26 37 14 20 1019.1 1019.1 0.0
19/02:00pm 11.1 4.4 1.4 51 4.3 SSW 26 33 14 18 1019.4 1019.4 0.0
19/01:30pm 11.1 5.3 2.4 55 4.0 S 22 33 12 18 1019.5 1019.5 0.0
19/01:00pm 10.8 5.4 1.4 52 4.2 SSW 19 30 10 16 1019.8 1019.8 0.0
19/12:30pm 9.8 4.2 1.2 55 3.8 SSW 20 26 11 14 1020.3 1020.3 0.0
19/12:00pm 9.3 4.0 1.7 59 3.3 SSW 19 26 10 14 1020.6 1020.6 0.0
19/11:30am 9.1 3.3 2.2 62 3.1 S 22 32 12 17 1021.0 1021.1 0.0
19/11:00am 8.5 1.8 1.2 60 3.1 SSW 26 39 14 21 1021.0 1021.1 0.0
19/10:30am 7.9 1.5 1.1 62 2.9 SW 24 35 13 19 1021.5 1021.5 0.0

Latest Capital City Observations: Canberra | Sydney | Melbourne | Brisbane | Adelaide | Perth | Hobart | Darwin

Other Formats:

Comma delimited format used in spreadsheet applications
http://www.bom.gov.au/fwo/IDN60903/IDN60903.94921.axf

JavaScript Object Notation format (JSON) in row-major order
http://www.bom.gov.au/fwo/IDN60903/IDN60903.94921.json